createdAt,value
2017-03-28T00:00:03.356Z,6.99
2017-03-28T00:15:03.054Z,6.68
2017-03-28T00:30:02.913Z,6.44
2017-03-28T00:45:02.886Z,6.43
2017-03-28T01:00:02.736Z,6.37
2017-03-28T01:15:02.564Z,6.14
2017-03-28T01:30:02.566Z,5.97
2017-03-28T01:45:03.357Z,5.91
2017-03-28T02:00:03.015Z,6.02
2017-03-28T02:15:03.001Z,6.11
2017-03-28T02:30:02.779Z,6.17
2017-03-28T02:45:02.452Z,6.01
2017-03-28T03:00:03.082Z,5.89
2017-03-28T03:15:02.649Z,5.68
2017-03-28T03:30:02.499Z,5.51
2017-03-28T03:45:03.348Z,5.3
2017-03-28T04:00:03.047Z,5.16
2017-03-28T04:15:02.959Z,5.21
2017-03-28T04:30:03.101Z,5.26
2017-03-28T04:45:03.383Z,5.42
2017-03-28T05:00:03.350Z,5.64
2017-03-28T05:15:02.856Z,5.54
2017-03-28T05:30:03.024Z,5.64
2017-03-28T05:45:02.679Z,5.75
2017-03-28T06:00:02.293Z,6.06
2017-03-28T06:15:02.697Z,6.25
2017-03-28T06:30:02.814Z,6.64
2017-03-28T06:45:02.924Z,7.16
2017-03-28T07:00:03.050Z,7.39
2017-03-28T07:15:02.442Z,7.83
2017-03-28T07:30:02.558Z,8.33
2017-03-28T07:45:03.229Z,8.88
2017-03-28T08:00:03.117Z,9.34
2017-03-28T08:15:03.045Z,9.97
2017-03-28T08:30:02.901Z,10.52
2017-03-28T08:45:02.895Z,11.03
2017-03-28T09:00:02.577Z,11.75
2017-03-28T09:15:02.461Z,12.35
2017-03-28T09:30:02.304Z,14.74
2017-03-28T09:45:08.360Z,21.53
2017-03-28T10:00:02.965Z,23.92
2017-03-28T10:15:02.268Z,25.3
2017-03-28T10:30:03.327Z,24.4
2017-03-28T10:45:02.993Z,24.4
2017-03-28T11:00:02.954Z,23.84
2017-03-28T11:15:02.601Z,23.12
2017-03-28T11:30:02.498Z,22.75
2017-03-28T11:45:02.348Z,22.79
2017-03-28T12:00:03.141Z,23.08
2017-03-28T12:15:02.535Z,22.35
2017-03-28T12:30:02.425Z,22.41
2017-03-28T12:45:03.297Z,22.11
2017-03-28T13:00:03.017Z,21.72
2017-03-28T13:15:02.741Z,21.37
2017-03-28T13:30:02.677Z,20.87
2017-03-28T13:45:02.376Z,20.81
2017-03-28T14:00:03.018Z,20.75
2017-03-28T14:15:02.722Z,20.59
2017-03-28T14:30:02.959Z,20.63
2017-03-28T14:45:07.703Z,20.68
2017-03-28T15:00:02.605Z,20.45
2017-03-28T15:15:03.165Z,20.51
2017-03-28T15:30:03.299Z,20.17
2017-03-28T15:45:03.593Z,19.92
2017-03-28T16:00:02.480Z,20.04
2017-03-28T16:15:02.454Z,19.85
2017-03-28T16:30:02.781Z,19.12
2017-03-28T16:45:02.996Z,18.79
2017-03-28T17:00:02.828Z,18.4
2017-03-28T17:15:07.836Z,17.95
2017-03-28T17:30:07.950Z,17.55
2017-03-28T17:45:08.040Z,17.19
2017-03-28T18:00:02.851Z,16.78
2017-03-28T18:15:02.914Z,16.36
2017-03-28T18:30:03.217Z,15.97
2017-03-28T18:45:02.962Z,15.57
2017-03-28T19:00:02.942Z,15.15
2017-03-28T19:15:02.583Z,14.7
2017-03-28T19:30:02.683Z,14.34
2017-03-28T19:45:02.503Z,14.17
2017-03-28T20:15:39.249Z,14.1
2017-03-28T20:45:03.654Z,13.74
2017-03-28T21:00:02.313Z,13.6
2017-03-28T21:15:03.057Z,13.49
2017-03-28T21:30:02.872Z,12.93
2017-03-28T21:45:02.762Z,12.58
2017-03-28T22:00:02.645Z,12.4
2017-03-28T22:15:02.766Z,12.34
2017-03-28T22:30:03.243Z,12.16
2017-03-28T22:45:02.820Z,12.01
2017-03-28T23:00:03.206Z,11.79
2017-03-28T23:15:02.874Z,11.56
2017-03-28T23:30:02.440Z,11.2
2017-03-28T23:45:02.891Z,10.89
